createdAt,value
2018-09-26T00:00:39.856Z,96.45
2018-09-26T00:03:14.520Z,96.46
2018-09-26T00:05:43.664Z,96.56
2018-09-26T00:08:12.806Z,96.72
2018-09-26T00:10:42.231Z,96.07
2018-09-26T00:13:11.357Z,95.97
2018-09-26T00:15:40.487Z,96.52
2018-09-26T00:18:10.218Z,95.63
2018-09-26T00:20:41.101Z,96.70
2018-09-26T00:23:10.209Z,95.81
2018-09-26T00:25:39.629Z,95.97
2018-09-26T00:28:09.470Z,96.42
2018-09-26T00:30:38.662Z,96.14
2018-09-26T00:33:08.292Z,95.46
2018-09-26T00:35:37.408Z,96.04
2018-09-26T00:38:06.626Z,95.65
2018-09-26T00:40:36.092Z,95.79
2018-09-26T00:43:05.226Z,95.82
2018-09-26T00:45:34.584Z,95.68
2018-09-26T00:48:04.077Z,95.92
2018-09-26T00:50:33.225Z,95.70
2018-09-26T00:53:02.374Z,96.09
2018-09-26T00:55:31.796Z,96.53
2018-09-26T00:58:00.961Z,96.40
2018-09-26T01:00:30.131Z,96.88
2018-09-26T01:02:59.595Z,97.19
2018-09-26T01:05:28.704Z,96.56
2018-09-26T01:07:57.819Z,96.58
2018-09-26T01:10:27.269Z,97.37
2018-09-26T01:12:56.693Z,96.58
2018-09-26T01:15:25.836Z,96.98
2018-09-26T01:17:56.016Z,96.65
2018-09-26T01:20:25.148Z,97.68
2018-09-26T01:22:54.437Z,97.49
2018-09-26T01:25:23.611Z,96.90
2018-09-26T01:27:52.868Z,97.20
2018-09-26T01:30:22.442Z,97.74
2018-09-26T01:32:51.573Z,96.98
2018-09-26T01:35:20.743Z,97.31
2018-09-26T01:37:49.873Z,97.46
2018-09-26T01:40:19.052Z,97.42
2018-09-26T01:42:48.204Z,97.78
2018-09-26T01:45:17.335Z,97.69
2018-09-26T01:47:46.790Z,97.45
2018-09-26T01:50:15.911Z,97.40
2018-09-26T01:52:45.069Z,97.87
2018-09-26T01:55:14.438Z,97.41
2018-09-26T01:57:43.594Z,97.51
2018-09-26T02:00:12.857Z,97.54
2018-09-26T02:02:42.041Z,98.49
2018-09-26T02:05:11.282Z,98.13
2018-09-26T02:07:40.479Z,98.29
2018-09-26T02:10:09.942Z,98.05
2018-09-26T02:12:39.071Z,98.30
2018-09-26T02:15:08.868Z,98.41
2018-09-26T02:17:38.069Z,97.82
2018-09-26T02:20:07.412Z,98.11
2018-09-26T02:22:36.831Z,97.54
2018-09-26T02:25:06.188Z,98.04
2018-09-26T02:27:36.717Z,97.50
2018-09-26T02:30:05.903Z,98.21
2018-09-26T02:32:35.086Z,98.21
2018-09-26T02:35:04.258Z,98.17
2018-09-26T02:37:34.001Z,98.59
2018-09-26T02:40:03.153Z,98.47
2018-09-26T02:42:32.301Z,98.63
2018-09-26T02:45:01.427Z,98.74
2018-09-26T02:47:30.598Z,99.21
2018-09-26T02:49:59.739Z,98.80
2018-09-26T02:52:28.885Z,99.05
2018-09-26T02:54:58.070Z,99.21
2018-09-26T02:57:27.208Z,100.00
2018-09-26T02:59:56.344Z,100.00
2018-09-26T03:02:25.504Z,100.00
2018-09-26T03:04:55.095Z,100.00
2018-09-26T03:07:24.213Z,100.00
2018-09-26T03:09:53.368Z,100.00
2018-09-26T03:12:22.600Z,100.00
2018-09-26T03:14:52.005Z,100.00
2018-09-26T03:17:21.265Z,100.00
2018-09-26T03:19:50.425Z,100.00
2018-09-26T03:22:19.598Z,100.00
2018-09-26T03:24:48.735Z,100.00
2018-09-26T03:27:17.908Z,100.00
2018-09-26T03:29:47.349Z,100.00
2018-09-26T03:32:16.501Z,100.00
2018-09-26T03:34:45.648Z,100.00
2018-09-26T03:37:14.873Z,100.00
2018-09-26T03:39:44.007Z,100.00
2018-09-26T03:42:13.176Z,100.00
2018-09-26T03:44:42.293Z,100.00
2018-09-26T03:47:11.589Z,100.00
2018-09-26T03:49:40.718Z,100.00
2018-09-26T03:52:10.186Z,100.00
2018-09-26T03:54:39.462Z,100.00
2018-09-26T03:57:08.770Z,100.00
2018-09-26T03:59:37.944Z,100.00
2018-09-26T04:02:07.138Z,100.00
2018-09-26T04:04:36.425Z,100.00
2018-09-26T04:07:05.888Z,100.00
2018-09-26T04:09:35.086Z,100.00
2018-09-26T04:12:04.855Z,100.00
2018-09-26T04:14:33.961Z,100.00
2018-09-26T04:17:03.156Z,100.00
2018-09-26T04:19:32.298Z,100.00
2018-09-26T04:22:01.441Z,100.00
2018-09-26T04:24:30.637Z,100.00
2018-09-26T04:26:59.982Z,100.00
2018-09-26T04:29:29.078Z,100.00
2018-09-26T04:31:59.301Z,100.00
2018-09-26T04:34:28.425Z,100.00
2018-09-26T04:36:57.580Z,100.00
2018-09-26T04:39:26.998Z,100.00
2018-09-26T04:41:56.188Z,100.00
2018-09-26T04:44:25.361Z,100.00
2018-09-26T04:46:54.721Z,99.51
2018-09-26T04:49:23.842Z,99.58
2018-09-26T04:51:53.012Z,99.55
2018-09-26T04:54:22.490Z,98.97
2018-09-26T04:56:51.981Z,98.98
2018-09-26T04:59:21.138Z,99.42
2018-09-26T05:01:50.590Z,99.59
2018-09-26T05:04:19.863Z,99.36
2018-09-26T05:06:49.243Z,99.92
2018-09-26T05:09:18.703Z,99.60
2018-09-26T05:11:48.168Z,99.53
2018-09-26T05:14:17.335Z,99.62
2018-09-26T05:16:46.722Z,100.00
2018-09-26T05:19:15.854Z,99.74
2018-09-26T05:21:45.017Z,99.99
2018-09-26T05:24:14.517Z,99.90
2018-09-26T05:26:43.667Z,99.48
2018-09-26T05:29:12.839Z,99.37
2018-09-26T05:31:42.338Z,98.72
2018-09-26T05:34:11.473Z,98.76
2018-09-26T05:36:40.605Z,99.29
2018-09-26T05:39:11.650Z,98.89
2018-09-26T05:41:40.816Z,98.97
2018-09-26T05:44:09.964Z,99.52
2018-09-26T05:46:39.537Z,99.42
2018-09-26T05:49:09.077Z,99.20
2018-09-26T05:51:38.207Z,98.70
2018-09-26T05:54:07.750Z,98.42
2018-09-26T05:56:36.907Z,99.22
2018-09-26T05:59:06.202Z,99.61
2018-09-26T06:01:35.613Z,99.18
2018-09-26T06:04:05.126Z,99.20
2018-09-26T06:06:34.294Z,99.46
2018-09-26T06:09:04.024Z,99.14
2018-09-26T06:11:33.216Z,98.33
2018-09-26T06:14:03.018Z,97.50
2018-09-26T06:16:32.528Z,97.30
2018-09-26T06:19:01.775Z,95.47
2018-09-26T06:21:30.881Z,95.69
2018-09-26T06:24:00.653Z,94.83
2018-09-26T06:26:29.819Z,94.51
2018-09-26T06:28:59.028Z,95.00
2018-09-26T06:31:28.462Z,93.82
2018-09-26T06:33:57.615Z,94.10
2018-09-26T06:36:27.025Z,94.89
2018-09-26T06:38:56.701Z,93.94
2018-09-26T06:41:25.843Z,92.87
2018-09-26T06:43:54.999Z,92.26
2018-09-26T06:46:24.478Z,91.11
2018-09-26T06:48:53.679Z,91.03
2018-09-26T06:51:22.839Z,90.62
2018-09-26T06:53:52.311Z,90.50
2018-09-26T06:56:21.450Z,90.80
2018-09-26T06:58:50.613Z,90.98
2018-09-26T07:01:20.037Z,91.43
2018-09-26T07:03:49.180Z,90.53
2018-09-26T07:06:18.352Z,89.73
2018-09-26T07:08:48.216Z,88.05
2018-09-26T07:11:17.697Z,87.97
2018-09-26T07:13:46.905Z,87.16
2018-09-26T07:16:16.072Z,85.70
2018-09-26T07:18:45.238Z,85.53
2018-09-26T07:21:14.406Z,85.34
2018-09-26T07:23:43.634Z,81.76
2018-09-26T07:26:12.786Z,83.23
2018-09-26T07:28:41.922Z,83.72
2018-09-26T07:31:11.101Z,80.23
2018-09-26T07:33:40.333Z,78.71
2018-09-26T07:36:09.488Z,77.97
2018-09-26T07:38:39.000Z,76.06
2018-09-26T07:41:08.574Z,77.77
2018-09-26T07:43:37.692Z,76.30
2018-09-26T07:46:07.401Z,76.39
2018-09-26T07:48:36.663Z,75.50
2018-09-26T07:51:06.136Z,76.17
2018-09-26T07:53:35.570Z,75.24
2018-09-26T07:56:04.949Z,74.73
2018-09-26T07:58:34.107Z,73.60
2018-09-26T08:01:03.643Z,74.16
2018-09-26T08:03:32.809Z,70.57
2018-09-26T08:06:02.029Z,69.39
2018-09-26T08:08:32.342Z,68.70
2018-09-26T08:11:02.557Z,70.55
2018-09-26T08:13:31.777Z,68.43
2018-09-26T08:16:02.156Z,68.01
2018-09-26T08:18:31.997Z,67.90
2018-09-26T08:21:01.141Z,67.05
2018-09-26T08:23:30.903Z,64.67
2018-09-26T08:26:00.415Z,64.76
2018-09-26T08:28:29.598Z,63.49
2018-09-26T08:30:58.955Z,63.22
2018-09-26T08:33:28.165Z,64.28
2018-09-26T08:35:57.965Z,60.52
2018-09-26T08:38:27.225Z,57.58
2018-09-26T08:40:56.452Z,56.93
2018-09-26T08:43:25.777Z,55.12
2018-09-26T08:45:55.150Z,56.22
2018-09-26T08:48:24.296Z,55.60
2018-09-26T08:50:53.441Z,56.48
2018-09-26T08:53:24.282Z,53.82
2018-09-26T08:55:53.428Z,56.56
2018-09-26T08:58:22.602Z,56.77
2018-09-26T09:00:54.053Z,52.54
2018-09-26T09:03:23.241Z,52.84
2018-09-26T09:05:52.885Z,51.97
2018-09-26T09:08:22.050Z,51.26
2018-09-26T09:10:51.504Z,53.07
2018-09-26T09:13:20.705Z,51.51
2018-09-26T09:15:49.861Z,50.58
2018-09-26T09:18:19.058Z,50.44
2018-09-26T09:20:48.269Z,49.97
2018-09-26T09:23:17.831Z,50.74
2018-09-26T09:25:46.959Z,50.24
2018-09-26T09:28:16.436Z,50.45
2018-09-26T09:30:45.676Z,48.78
2018-09-26T09:33:15.184Z,50.24
2018-09-26T09:35:44.400Z,48.75
2018-09-26T09:38:13.726Z,49.38
2018-09-26T09:40:42.860Z,46.64
2018-09-26T09:43:12.474Z,47.09
2018-09-26T09:45:41.788Z,47.87
2018-09-26T09:48:11.487Z,47.99
2018-09-26T09:50:40.699Z,46.99
2018-09-26T09:53:10.702Z,44.13
2018-09-26T09:55:40.102Z,47.71
2018-09-26T09:58:09.305Z,45.16
2018-09-26T10:00:43.766Z,47.50
2018-09-26T10:03:12.997Z,43.97
2018-09-26T10:05:42.136Z,44.28
2018-09-26T10:08:11.323Z,43.41
2018-09-26T10:10:41.006Z,44.09
2018-09-26T10:13:10.126Z,43.15
2018-09-26T10:15:39.635Z,44.59
2018-09-26T10:18:09.201Z,45.89
2018-09-26T10:20:38.391Z,44.07
2018-09-26T10:23:07.751Z,44.14
2018-09-26T10:25:37.078Z,43.87
2018-09-26T10:28:06.669Z,43.84
2018-09-26T10:30:35.879Z,44.15
2018-09-26T10:33:05.082Z,42.95
2018-09-26T10:35:34.320Z,43.33
2018-09-26T10:38:03.532Z,42.00
2018-09-26T10:40:32.702Z,43.30
2018-09-26T10:43:01.960Z,42.88
2018-09-26T10:45:31.385Z,42.94
2018-09-26T10:48:00.890Z,42.35
2018-09-26T10:50:30.043Z,44.06
2018-09-26T10:52:59.254Z,41.22
2018-09-26T10:55:28.494Z,43.45
2018-09-26T10:57:57.820Z,43.36
2018-09-26T11:00:27.130Z,42.89
2018-09-26T11:02:56.384Z,41.05
2018-09-26T11:05:25.601Z,39.85
2018-09-26T11:07:54.789Z,39.06
2018-09-26T11:10:24.055Z,38.61
2018-09-26T11:12:53.146Z,39.10
2018-09-26T11:15:23.309Z,39.09
2018-09-26T11:17:53.050Z,41.27
2018-09-26T11:20:22.652Z,39.05
2018-09-26T11:22:52.297Z,38.61
2018-09-26T11:25:21.412Z,40.22
2018-09-26T11:27:50.580Z,39.73
2018-09-26T11:30:19.818Z,39.37
2018-09-26T11:32:49.027Z,38.53
2018-09-26T11:35:18.262Z,40.27
2018-09-26T11:37:47.461Z,42.71
2018-09-26T11:40:16.904Z,41.00
2018-09-26T11:42:47.003Z,40.86
2018-09-26T11:45:16.243Z,40.78
2018-09-26T11:47:45.619Z,41.38
2018-09-26T11:50:15.353Z,38.93
2018-09-26T11:52:44.704Z,41.02
2018-09-26T11:55:14.097Z,41.01
2018-09-26T11:57:43.543Z,41.21
2018-09-26T12:00:12.688Z,40.24
2018-09-26T12:02:42.014Z,39.72
2018-09-26T12:05:11.201Z,41.20
2018-09-26T12:07:40.433Z,38.12
2018-09-26T12:10:09.665Z,39.38
2018-09-26T12:12:38.813Z,39.08
2018-09-26T12:15:08.266Z,39.65
2018-09-26T12:17:37.410Z,38.59
2018-09-26T12:20:07.019Z,37.48
2018-09-26T12:22:37.761Z,38.96
2018-09-26T12:25:07.729Z,38.89
2018-09-26T12:27:37.102Z,38.95
2018-09-26T12:30:07.955Z,39.12
2018-09-26T12:32:37.503Z,40.83
2018-09-26T12:35:06.845Z,40.31
2018-09-26T12:37:36.024Z,39.89
2018-09-26T12:40:06.921Z,40.63
2018-09-26T12:42:38.145Z,37.69
2018-09-26T12:45:07.634Z,38.63
2018-09-26T12:47:36.851Z,39.46
2018-09-26T12:50:06.823Z,40.61
2018-09-26T12:52:36.001Z,38.34
2018-09-26T12:55:05.348Z,37.25
2018-09-26T12:57:34.614Z,38.03
2018-09-26T13:00:04.010Z,38.07
2018-09-26T13:02:33.334Z,37.73
2018-09-26T13:05:02.527Z,37.05
2018-09-26T13:07:31.763Z,39.30
2018-09-26T13:10:01.018Z,38.01
2018-09-26T13:12:30.261Z,39.12
2018-09-26T13:14:59.575Z,38.60
2018-09-26T13:17:28.832Z,38.88
2018-09-26T13:19:58.253Z,39.67
2018-09-26T13:22:27.506Z,40.04
2018-09-26T13:24:56.716Z,40.76
2018-09-26T13:27:25.977Z,39.96
2018-09-26T13:29:55.229Z,40.84
2018-09-26T13:32:25.584Z,39.08
2018-09-26T13:34:54.658Z,40.47
2018-09-26T13:37:25.205Z,39.61
2018-09-26T13:39:54.347Z,41.00
2018-09-26T13:42:24.083Z,41.05
2018-09-26T13:44:53.494Z,39.02
2018-09-26T13:47:22.678Z,39.63
2018-09-26T13:49:52.535Z,41.17
2018-09-26T13:52:21.733Z,41.26
2018-09-26T13:54:51.027Z,39.66
2018-09-26T13:57:20.203Z,40.19
2018-09-26T13:59:49.407Z,39.46
2018-09-26T14:02:18.584Z,41.31
2018-09-26T14:04:47.727Z,40.58
2018-09-26T14:07:16.891Z,39.62
2018-09-26T14:09:46.055Z,40.14
2018-09-26T14:12:15.318Z,40.97
2018-09-26T14:14:44.682Z,40.75
2018-09-26T14:17:13.995Z,40.01
2018-09-26T14:19:43.137Z,41.25
2018-09-26T14:22:12.401Z,40.61
2018-09-26T14:24:41.464Z,40.58
2018-09-26T14:27:10.640Z,39.48
2018-09-26T14:29:39.815Z,40.19
2018-09-26T14:32:09.233Z,41.17
2018-09-26T14:34:38.768Z,41.32
2018-09-26T14:37:08.398Z,40.86
2018-09-26T14:39:37.812Z,40.33
2018-09-26T14:42:06.855Z,41.74
2018-09-26T14:44:36.173Z,41.85
2018-09-26T14:47:05.556Z,41.23
2018-09-26T14:49:34.880Z,41.01
2018-09-26T14:52:04.116Z,41.73
2018-09-26T14:54:33.273Z,43.41
2018-09-26T14:57:02.536Z,41.34
2018-09-26T14:59:31.747Z,42.19
2018-09-26T15:02:00.967Z,42.85
2018-09-26T15:04:30.241Z,43.09
2018-09-26T15:06:59.454Z,42.37
2018-09-26T15:09:28.635Z,43.16
2018-09-26T15:11:57.840Z,43.96
2018-09-26T15:14:27.035Z,43.87
2018-09-26T15:16:56.977Z,44.01
2018-09-26T15:19:26.257Z,44.25
2018-09-26T15:21:55.429Z,44.78
2018-09-26T15:24:24.912Z,44.89
2018-09-26T15:26:54.082Z,46.16
2018-09-26T15:29:23.270Z,46.04
2018-09-26T15:31:52.446Z,44.65
2018-09-26T15:34:21.752Z,46.51
2018-09-26T15:36:50.974Z,46.99
2018-09-26T15:39:20.453Z,45.41
2018-09-26T15:41:49.977Z,47.10
2018-09-26T15:44:19.838Z,47.44
2018-09-26T15:46:49.496Z,47.91
2018-09-26T15:49:18.736Z,47.66
2018-09-26T15:51:48.013Z,48.13
2018-09-26T15:54:18.442Z,47.82
2018-09-26T15:56:47.644Z,47.52
2018-09-26T15:59:16.833Z,47.53
2018-09-26T16:01:46.009Z,47.60
2018-09-26T16:04:15.440Z,48.14
2018-09-26T16:06:44.630Z,48.41
2018-09-26T16:09:14.585Z,48.53
2018-09-26T16:11:43.725Z,48.97
2018-09-26T16:14:13.112Z,50.49
2018-09-26T16:16:42.231Z,52.00
2018-09-26T16:19:11.856Z,51.98
2018-09-26T16:21:40.944Z,51.89
2018-09-26T16:24:10.150Z,52.04
2018-09-26T16:26:39.345Z,51.23
2018-09-26T16:29:08.884Z,52.03
2018-09-26T16:31:38.125Z,52.16
2018-09-26T16:34:07.391Z,52.63
2018-09-26T16:36:36.749Z,53.81
2018-09-26T16:39:09.282Z,54.77
2018-09-26T16:41:38.964Z,54.86
2018-09-26T16:44:08.168Z,55.31
2018-09-26T16:46:37.448Z,55.76
2018-09-26T16:49:07.052Z,56.78
2018-09-26T16:51:36.202Z,58.84
2018-09-26T16:54:05.993Z,59.17
2018-09-26T16:56:35.118Z,60.10
2018-09-26T16:59:04.368Z,60.55
2018-09-26T17:01:33.509Z,60.80
2018-09-26T17:04:02.639Z,61.84
2018-09-26T17:06:31.811Z,61.36
2018-09-26T17:09:01.012Z,64.68
2018-09-26T17:11:30.995Z,66.01
2018-09-26T17:14:00.126Z,65.89
2018-09-26T17:16:29.518Z,66.23
2018-09-26T17:18:59.150Z,66.80
2018-09-26T17:21:28.861Z,68.09
2018-09-26T17:23:58.019Z,68.32
2018-09-26T17:26:27.521Z,69.22
2018-09-26T17:28:56.595Z,70.58
2018-09-26T17:31:26.341Z,70.47
2018-09-26T17:33:55.693Z,71.54
2018-09-26T17:36:25.913Z,71.59
2018-09-26T17:38:55.912Z,71.95
2018-09-26T17:41:25.457Z,73.14
2018-09-26T17:43:54.649Z,73.83
2018-09-26T17:46:23.847Z,73.70
2018-09-26T17:48:53.354Z,73.21
2018-09-26T17:51:22.526Z,74.06
2018-09-26T17:53:51.907Z,72.86
2018-09-26T17:56:21.099Z,73.87
2018-09-26T17:58:50.273Z,74.40
2018-09-26T18:01:19.821Z,75.76
2018-09-26T18:03:50.766Z,77.04
2018-09-26T18:06:20.725Z,76.40
2018-09-26T18:08:49.909Z,76.09
2018-09-26T18:11:19.595Z,75.84
2018-09-26T18:13:49.310Z,75.68
2018-09-26T18:16:18.591Z,75.12
2018-09-26T18:18:48.919Z,75.47
2018-09-26T18:21:18.564Z,75.51
2018-09-26T18:23:48.556Z,75.89
2018-09-26T18:26:18.050Z,76.16
2018-09-26T18:28:47.191Z,76.51
2018-09-26T18:31:17.601Z,76.62
2018-09-26T18:33:46.677Z,76.47
2018-09-26T18:36:16.533Z,76.78
2018-09-26T18:38:45.936Z,76.63
2018-09-26T18:41:15.125Z,76.99
2018-09-26T18:43:44.378Z,77.37
2018-09-26T18:46:14.637Z,77.77
2018-09-26T18:48:43.836Z,78.08
2018-09-26T18:51:13.899Z,78.51
2018-09-26T18:53:43.021Z,78.87
2018-09-26T18:56:12.144Z,78.62
2018-09-26T18:58:42.148Z,78.92
2018-09-26T19:01:11.623Z,80.17
2018-09-26T19:03:40.745Z,79.75
2018-09-26T19:06:13.254Z,80.05
2018-09-26T19:08:42.378Z,80.64
2018-09-26T19:11:11.827Z,80.75
2018-09-26T19:13:40.987Z,81.16
2018-09-26T19:16:10.141Z,81.33
2018-09-26T19:18:39.279Z,81.54
2018-09-26T19:21:08.747Z,81.71
2018-09-26T19:23:38.002Z,82.06
2018-09-26T19:26:07.710Z,82.41
2018-09-26T19:28:37.598Z,82.68
2018-09-26T19:31:07.018Z,82.92
2018-09-26T19:33:36.297Z,83.28
2018-09-26T19:36:05.453Z,83.35
2018-09-26T19:38:34.633Z,83.33
2018-09-26T19:41:03.773Z,83.71
2018-09-26T19:43:32.886Z,83.51
2018-09-26T19:46:02.365Z,83.45
2018-09-26T19:48:31.967Z,83.75
2018-09-26T19:51:01.776Z,83.76
2018-09-26T19:53:30.859Z,83.94
2018-09-26T19:56:00.747Z,83.83
2018-09-26T19:58:30.197Z,84.47
2018-09-26T20:00:59.318Z,85.25
2018-09-26T20:03:29.268Z,84.46
2018-09-26T20:05:58.406Z,85.23
2018-09-26T20:08:27.904Z,85.19
2018-09-26T20:10:57.092Z,85.52
2018-09-26T20:13:26.543Z,85.65
2018-09-26T20:15:55.686Z,85.55
2018-09-26T20:18:24.810Z,85.68
2018-09-26T20:20:54.265Z,85.54
2018-09-26T20:23:23.548Z,85.63
2018-09-26T20:25:52.573Z,85.58
2018-09-26T20:28:22.498Z,85.46
2018-09-26T20:30:51.948Z,85.74
2018-09-26T20:33:21.198Z,85.83
2018-09-26T20:35:50.663Z,85.79
2018-09-26T20:38:19.813Z,85.87
2018-09-26T20:40:48.973Z,85.82
2018-09-26T20:43:18.130Z,86.36
2018-09-26T20:45:49.855Z,86.59
2018-09-26T20:48:19.083Z,86.66
2018-09-26T20:50:48.681Z,86.81
2018-09-26T20:53:18.148Z,87.11
2018-09-26T20:55:47.646Z,87.51
2018-09-26T20:58:16.920Z,87.37
2018-09-26T21:00:46.262Z,87.97
2018-09-26T21:03:15.445Z,87.96
2018-09-26T21:05:44.725Z,88.14
2018-09-26T21:08:14.178Z,88.61
2018-09-26T21:10:43.439Z,89.28
2018-09-26T21:13:12.821Z,89.02
2018-09-26T21:15:43.122Z,88.97
2018-09-26T21:18:12.261Z,89.07
2018-09-26T21:20:41.397Z,89.66
2018-09-26T21:23:10.614Z,89.75
2018-09-26T21:25:39.789Z,89.13
2018-09-26T21:28:09.156Z,89.85
2018-09-26T21:30:38.397Z,90.00
2018-09-26T21:33:08.182Z,89.83
2018-09-26T21:35:37.303Z,90.22
2018-09-26T21:38:06.453Z,90.76
2018-09-26T21:40:35.622Z,90.77
2018-09-26T21:43:05.147Z,90.67
2018-09-26T21:45:34.323Z,90.25
2018-09-26T21:48:03.486Z,90.63
2018-09-26T21:50:34.237Z,90.62
2018-09-26T21:53:04.282Z,91.17
2018-09-26T21:55:33.418Z,91.19
2018-09-26T21:58:03.344Z,91.12
2018-09-26T22:00:32.758Z,90.91
2018-09-26T22:03:03.186Z,90.75
2018-09-26T22:05:32.352Z,91.66
2018-09-26T22:08:01.745Z,91.54
2018-09-26T22:10:30.881Z,92.09
2018-09-26T22:13:00.081Z,93.04
2018-09-26T22:15:29.265Z,92.90
2018-09-26T22:17:58.452Z,93.09
2018-09-26T22:20:27.655Z,92.49
2018-09-26T22:22:57.087Z,92.98
2018-09-26T22:25:26.237Z,92.84
2018-09-26T22:27:55.389Z,92.87
2018-09-26T22:30:24.590Z,92.71
2018-09-26T22:32:53.723Z,92.87
2018-09-26T22:35:30.969Z,93.13
2018-09-26T22:38:11.420Z,93.21
2018-09-26T22:40:41.025Z,92.89
2018-09-26T22:43:10.170Z,93.52
2018-09-26T22:45:39.553Z,93.52
2018-09-26T22:48:08.710Z,93.52
2018-09-26T22:50:38.381Z,93.12
2018-09-26T22:53:08.598Z,93.65
2018-09-26T22:55:38.380Z,93.49
2018-09-26T22:58:07.539Z,93.08
2018-09-26T23:00:36.657Z,93.46
2018-09-26T23:03:06.028Z,93.27
2018-09-26T23:05:35.222Z,93.33
2018-09-26T23:08:04.877Z,93.54
2018-09-26T23:10:34.039Z,93.71
2018-09-26T23:13:07.066Z,93.79
2018-09-26T23:15:36.430Z,93.92
2018-09-26T23:18:05.596Z,94.35
2018-09-26T23:20:34.943Z,94.57
2018-09-26T23:23:04.061Z,94.60
2018-09-26T23:25:33.245Z,93.96
2018-09-26T23:28:02.410Z,94.05
2018-09-26T23:30:31.558Z,93.83
2018-09-26T23:33:00.702Z,94.25
2018-09-26T23:35:29.878Z,93.85
2018-09-26T23:38:00.018Z,93.99
2018-09-26T23:40:29.514Z,93.88
2018-09-26T23:42:58.699Z,94.12
2018-09-26T23:45:27.871Z,94.22
2018-09-26T23:47:57.485Z,93.97
2018-09-26T23:50:26.801Z,93.45
2018-09-26T23:52:56.002Z,94.03
2018-09-26T23:55:25.490Z,93.82
2018-09-26T23:57:54.608Z,93.27
